Impacts TAF Board INFO
FOR SITUATIONAL AWARENESS. NOT TO BE USED FOR FLIGHT PLANNING PURPOSES.
IDs:

KDFW - Dallas-Ft Worth Intl, TX, US

Issued at 1141 UTC 18 Jan 2018
Updated at 1337 UTC 18 Jan 2018
Potential Impact None Slight Moderate High
Time1253Z 18/14Z 18/15Z 18/16Z 18/17Z 18/18Z 18/19Z 18/20Z 18/21Z 18/22Z 18/23Z 19/00Z 19/01Z 19/02Z>>
Type OBS PRVL PRVL PRVL PRVL PRVL PRVL PRVL PRVL PRVL PRVL PRVL PRVL PRVL
VIS 10 >6 >6 >6 >6 >6 >6 >6 >6 >6 >6 >6 >6 >6
CIG -- -- -- -- -- -- -- -- -- -- -- -- -- --
Cover CLR SCT SCT SCT SCT SCT SCT SCT SCT SCT SCT SCT SCT SCT
FltCat VFR VFR VFR VFR VFR VFR VFR VFR VFR VFR VFR VFR VFR VFR
WX -- -- -- -- -- -- -- -- -- -- -- -- -- --
WDir 190 180 180 180 180 180 180 180 180 180 180 180 180 180
WSpd 7 7 7 7 7 7 7 7 7 7 7 7 7 7
WGst -- -- -- -- -- -- -- -- -- -- -- -- -- --

Raw TAF
KDFW 181141Z 1812/1918 18007KT P6SM SCT050
  FM191500 19014KT P6SM SCT040


Raw METAR
KDFW 181253Z 19007KT 10SM CLR M07/M12 A3051 RMK AO2 SLP336 T10721122 $
KDFW 181153Z 22005KT 10SM CLR M07/M12 A3051 RMK AO2 SLP336 T10721122 11039 21072 58011 $
KDFW 181053Z 20006KT 10SM CLR M06/M12 A3052 RMK AO2 SLP339 T10611122 $

METAR Board
Radar Display
Forecast Discussion

FOR SITUATIONAL AWARENESS. NOT TO BE USED FOR FLIGHT PLANNING PURPOSES.